sensor_id;sensor_type;location;lat;lon;timestamp;temperature;humidity
23335;DHT22;11839;48.598;8.870;2023-02-08T00:02:20;-1.40;99.90
23335;DHT22;11839;48.598;8.870;2023-02-08T00:04:47;-1.30;99.90
23335;DHT22;11839;48.598;8.870;2023-02-08T00:07:14;-1.30;99.90
23335;DHT22;11839;48.598;8.870;2023-02-08T00:09:41;-1.50;99.90
23335;DHT22;11839;48.598;8.870;2023-02-08T00:12:09;-1.40;99.90
23335;DHT22;11839;48.598;8.870;2023-02-08T00:14:36;-1.30;99.90
23335;DHT22;11839;48.598;8.870;2023-02-08T00:17:03;-1.30;99.90
23335;DHT22;11839;48.598;8.870;2023-02-08T00:19:30;-1.40;99.80
23335;DHT22;11839;48.598;8.870;2023-02-08T00:21:56;-1.40;99.60
23335;DHT22;11839;48.598;8.870;2023-02-08T00:24:23;-1.60;99.90
23335;DHT22;11839;48.598;8.870;2023-02-08T00:26:50;-1.80;99.90
23335;DHT22;11839;48.598;8.870;2023-02-08T00:29:19;-2.00;99.90
23335;DHT22;11839;48.598;8.870;2023-02-08T00:31:46;-2.10;99.90
23335;DHT22;11839;48.598;8.870;2023-02-08T00:34:13;-2.00;99.90
23335;DHT22;11839;48.598;8.870;2023-02-08T00:36:40;-1.80;99.90
23335;DHT22;11839;48.598;8.870;2023-02-08T00:39:07;-1.80;99.90
23335;DHT22;11839;48.598;8.870;2023-02-08T00:41:33;-1.60;99.90
23335;DHT22;11839;48.598;8.870;2023-02-08T00:44:00;-1.50;99.90
23335;DHT22;11839;48.598;8.870;2023-02-08T00:46:28;-1.40;99.90
23335;DHT22;11839;48.598;8.870;2023-02-08T00:48:55;-1.30;99.90
23335;DHT22;11839;48.598;8.870;2023-02-08T00:51:22;-1.10;99.90
23335;DHT22;11839;48.598;8.870;2023-02-08T00:53:48;-1.10;99.80
23335;DHT22;11839;48.598;8.870;2023-02-08T00:56:15;-0.90;99.50
23335;DHT22;11839;48.598;8.870;2023-02-08T00:58:42;-1.10;99.30
23335;DHT22;11839;48.598;8.870;2023-02-08T01:01:09;-1.10;99.40
23335;DHT22;11839;48.598;8.870;2023-02-08T01:03:40;-1.10;99.30
23335;DHT22;11839;48.598;8.870;2023-02-08T01:06:09;-1.10;99.50
23335;DHT22;11839;48.598;8.870;2023-02-08T01:08:36;-1.10;99.30
23335;DHT22;11839;48.598;8.870;2023-02-08T01:11:05;-1.20;99.50
23335;DHT22;11839;48.598;8.870;2023-02-08T01:13:32;-1.40;99.80
23335;DHT22;11839;48.598;8.870;2023-02-08T01:16:10;-1.60;99.90
23335;DHT22;11839;48.598;8.870;2023-02-08T01:18:40;-1.70;99.90
23335;DHT22;11839;48.598;8.870;2023-02-08T01:21:10;-1.70;99.90
23335;DHT22;11839;48.598;8.870;2023-02-08T01:23:37;-1.70;99.90
23335;DHT22;11839;48.598;8.870;2023-02-08T01:26:05;-1.70;99.90
23335;DHT22;11839;48.598;8.870;2023-02-08T01:28:33;-1.80;99.90
23335;DHT22;11839;48.598;8.870;2023-02-08T01:31:04;-1.90;99.90
23335;DHT22;11839;48.598;8.870;2023-02-08T01:33:31;-2.00;99.90
23335;DHT22;11839;48.598;8.870;2023-02-08T01:35:59;-1.90;99.90
23335;DHT22;11839;48.598;8.870;2023-02-08T01:38:26;-1.80;99.90
23335;DHT22;11839;48.598;8.870;2023-02-08T01:40:53;-1.70;99.80
23335;DHT22;11839;48.598;8.870;2023-02-08T01:43:22;-1.90;99.90
23335;DHT22;11839;48.598;8.870;2023-02-08T01:45:49;-2.50;99.90
23335;DHT22;11839;48.598;8.870;2023-02-08T01:48:20;-2.50;99.90
23335;DHT22;11839;48.598;8.870;2023-02-08T01:50:53;-2.50;99.90
23335;DHT22;11839;48.598;8.870;2023-02-08T01:53:23;-2.40;99.90
23335;DHT22;11839;48.598;8.870;2023-02-08T01:55:54;-2.40;99.90
23335;DHT22;11839;48.598;8.870;2023-02-08T01:58:21;-2.60;99.90
23335;DHT22;11839;48.598;8.870;2023-02-08T02:00:49;-2.50;99.90
23335;DHT22;11839;48.598;8.870;2023-02-08T02:03:17;-2.60;99.90
23335;DHT22;11839;48.598;8.870;2023-02-08T02:05:48;-2.70;99.90
23335;DHT22;11839;48.598;8.870;2023-02-08T02:08:15;-2.80;99.90
23335;DHT22;11839;48.598;8.870;2023-02-08T02:10:43;-3.00;99.90
23335;DHT22;11839;48.598;8.870;2023-02-08T02:13:15;-2.90;99.90
23335;DHT22;11839;48.598;8.870;2023-02-08T02:15:43;-2.90;99.90
23335;DHT22;11839;48.598;8.870;2023-02-08T02:18:11;-2.90;99.90
23335;DHT22;11839;48.598;8.870;2023-02-08T02:27:08;-2.90;99.90
23335;DHT22;11839;48.598;8.870;2023-02-08T02:30:14;-3.00;99.90
23335;DHT22;11839;48.598;8.870;2023-02-08T02:32:55;-3.00;99.90
23335;DHT22;11839;48.598;8.870;2023-02-08T02:35:31;-2.80;99.90
23335;DHT22;11839;48.598;8.870;2023-02-08T02:38:10;-2.60;99.90
23335;DHT22;11839;48.598;8.870;2023-02-08T02:40:47;-2.70;99.90
23335;DHT22;11839;48.598;8.870;2023-02-08T02:43:22;-2.90;99.90
23335;DHT22;11839;48.598;8.870;2023-02-08T02:46:12;-3.00;99.90
23335;DHT22;11839;48.598;8.870;2023-02-08T02:48:47;-3.00;99.90
23335;DHT22;11839;48.598;8.870;2023-02-08T02:51:18;-3.10;99.90
23335;DHT22;11839;48.598;8.870;2023-02-08T02:53:51;-3.10;99.90
23335;DHT22;11839;48.598;8.870;2023-02-08T02:56:23;-3.10;99.90
23335;DHT22;11839;48.598;8.870;2023-02-08T02:58:51;-3.10;99.90
23335;DHT22;11839;48.598;8.870;2023-02-08T03:01:22;-2.90;99.90
23335;DHT22;11839;48.598;8.870;2023-02-08T03:03:51;-2.80;99.90
23335;DHT22;11839;48.598;8.870;2023-02-08T03:06:25;-2.90;99.90
23335;DHT22;11839;48.598;8.870;2023-02-08T03:09:02;-2.70;99.90
23335;DHT22;11839;48.598;8.870;2023-02-08T03:11:34;-2.80;99.90
23335;DHT22;11839;48.598;8.870;2023-02-08T03:14:12;-2.80;99.90
23335;DHT22;11839;48.598;8.870;2023-02-08T03:16:54;-2.90;99.90
23335;DHT22;11839;48.598;8.870;2023-02-08T03:19:30;-3.00;99.90
23335;DHT22;11839;48.598;8.870;2023-02-08T03:22:02;-3.00;99.90
23335;DHT22;11839;48.598;8.870;2023-02-08T03:24:36;-3.10;99.90
23335;DHT22;11839;48.598;8.870;2023-02-08T03:27:07;-3.10;99.90
23335;DHT22;11839;48.598;8.870;2023-02-08T03:29:42;-3.20;99.90
23335;DHT22;11839;48.598;8.870;2023-02-08T03:32:12;-3.10;99.90
23335;DHT22;11839;48.598;8.870;2023-02-08T03:34:47;-3.10;99.90
23335;DHT22;11839;48.598;8.870;2023-02-08T03:37:20;-3.00;99.90
23335;DHT22;11839;48.598;8.870;2023-02-08T03:39:50;-3.00;99.90
23335;DHT22;11839;48.598;8.870;2023-02-08T03:42:23;-3.00;99.90
23335;DHT22;11839;48.598;8.870;2023-02-08T03:44:53;-2.70;99.90
23335;DHT22;11839;48.598;8.870;2023-02-08T03:47:23;-2.50;99.90
23335;DHT22;11839;48.598;8.870;2023-02-08T03:49:54;-2.40;99.90
23335;DHT22;11839;48.598;8.870;2023-02-08T03:52:24;-2.50;99.90
23335;DHT22;11839;48.598;8.870;2023-02-08T03:54:56;-2.50;99.90
23335;DHT22;11839;48.598;8.870;2023-02-08T03:57:26;-2.50;99.80
23335;DHT22;11839;48.598;8.870;2023-02-08T03:59:56;-2.50;99.90
23335;DHT22;11839;48.598;8.870;2023-02-08T04:02:26;-2.40;99.60
23335;DHT22;11839;48.598;8.870;2023-02-08T04:04:55;-2.30;99.40
23335;DHT22;11839;48.598;8.870;2023-02-08T04:07:23;-2.40;99.10
23335;DHT22;11839;48.598;8.870;2023-02-08T04:09:50;-2.50;99.20
23335;DHT22;11839;48.598;8.870;2023-02-08T04:12:17;-2.70;99.20
23335;DHT22;11839;48.598;8.870;2023-02-08T04:14:44;-3.00;99.40
23335;DHT22;11839;48.598;8.870;2023-02-08T04:17:11;-3.20;99.60
23335;DHT22;11839;48.598;8.870;2023-02-08T04:19:38;-3.20;99.90
23335;DHT22;11839;48.598;8.870;2023-02-08T04:22:06;-3.20;99.90
23335;DHT22;11839;48.598;8.870;2023-02-08T04:24:33;-3.20;99.90
23335;DHT22;11839;48.598;8.870;2023-02-08T04:26:59;-3.30;99.90
23335;DHT22;11839;48.598;8.870;2023-02-08T04:29:26;-3.40;99.90
23335;DHT22;11839;48.598;8.870;2023-02-08T04:31:53;-3.30;99.90
23335;DHT22;11839;48.598;8.870;2023-02-08T04:34:20;-3.50;99.90
23335;DHT22;11839;48.598;8.870;2023-02-08T04:36:47;-3.60;99.90
23335;DHT22;11839;48.598;8.870;2023-02-08T04:39:15;-3.60;99.90
23335;DHT22;11839;48.598;8.870;2023-02-08T04:41:42;-3.50;99.90
23335;DHT22;11839;48.598;8.870;2023-02-08T04:44:08;-3.60;99.90
23335;DHT22;11839;48.598;8.870;2023-02-08T04:46:35;-3.40;99.90
23335;DHT22;11839;48.598;8.870;2023-02-08T04:49:02;-3.50;99.80
23335;DHT22;11839;48.598;8.870;2023-02-08T04:51:29;-3.50;99.90
23335;DHT22;11839;48.598;8.870;2023-02-08T04:53:55;-3.70;99.90
23335;DHT22;11839;48.598;8.870;2023-02-08T04:56:23;-3.70;99.90
23335;DHT22;11839;48.598;8.870;2023-02-08T04:58:50;-3.90;99.90
23335;DHT22;11839;48.598;8.870;2023-02-08T05:01:17;-4.10;99.90
23335;DHT22;11839;48.598;8.870;2023-02-08T05:03:44;-4.20;99.90
23335;DHT22;11839;48.598;8.870;2023-02-08T05:06:11;-4.10;99.90
23335;DHT22;11839;48.598;8.870;2023-02-08T05:08:37;-4.00;99.90
23335;DHT22;11839;48.598;8.870;2023-02-08T05:11:04;-4.00;99.90
23335;DHT22;11839;48.598;8.870;2023-02-08T05:13:33;-3.90;99.90
23335;DHT22;11839;48.598;8.870;2023-02-08T05:15:59;-3.70;99.90
23335;DHT22;11839;48.598;8.870;2023-02-08T05:18:26;-3.90;99.90
23335;DHT22;11839;48.598;8.870;2023-02-08T05:20:54;-3.70;99.90
23335;DHT22;11839;48.598;8.870;2023-02-08T05:23:21;-3.50;99.90
23335;DHT22;11839;48.598;8.870;2023-02-08T05:25:48;-3.50;99.90
23335;DHT22;11839;48.598;8.870;2023-02-08T05:28:15;-3.40;99.90
23335;DHT22;11839;48.598;8.870;2023-02-08T05:30:43;-3.10;99.90
23335;DHT22;11839;48.598;8.870;2023-02-08T05:33:10;-3.10;99.60
23335;DHT22;11839;48.598;8.870;2023-02-08T05:35:37;-3.00;99.30
23335;DHT22;11839;48.598;8.870;2023-02-08T05:38:05;-3.10;99.40
23335;DHT22;11839;48.598;8.870;2023-02-08T05:40:32;-3.20;99.40
23335;DHT22;11839;48.598;8.870;2023-02-08T05:42:59;-3.30;99.70
23335;DHT22;11839;48.598;8.870;2023-02-08T05:45:27;-3.20;99.90
23335;DHT22;11839;48.598;8.870;2023-02-08T05:47:55;-3.10;99.60
23335;DHT22;11839;48.598;8.870;2023-02-08T05:50:22;-3.10;99.30
23335;DHT22;11839;48.598;8.870;2023-02-08T05:52:49;-2.90;99.20
23335;DHT22;11839;48.598;8.870;2023-02-08T05:55:15;-2.90;99.00
23335;DHT22;11839;48.598;8.870;2023-02-08T05:57:42;-2.90;99.00
23335;DHT22;11839;48.598;8.870;2023-02-08T06:00:10;-3.00;99.30
23335;DHT22;11839;48.598;8.870;2023-02-08T06:02:37;-3.40;99.40
23335;DHT22;11839;48.598;8.870;2023-02-08T06:05:06;-3.50;99.80
23335;DHT22;11839;48.598;8.870;2023-02-08T06:07:33;-3.40;99.90
23335;DHT22;11839;48.598;8.870;2023-02-08T06:10:00;-3.10;99.70
23335;DHT22;11839;48.598;8.870;2023-02-08T06:12:26;-3.20;99.40
23335;DHT22;11839;48.598;8.870;2023-02-08T06:14:53;-3.20;99.50
23335;DHT22;11839;48.598;8.870;2023-02-08T06:17:20;-3.30;99.50
23335;DHT22;11839;48.598;8.870;2023-02-08T06:19:47;-3.20;99.40
23335;DHT22;11839;48.598;8.870;2023-02-08T06:22:15;-3.20;99.30
23335;DHT22;11839;48.598;8.870;2023-02-08T06:24:41;-3.50;99.40
23335;DHT22;11839;48.598;8.870;2023-02-08T06:27:08;-3.50;99.50
23335;DHT22;11839;48.598;8.870;2023-02-08T06:29:35;-3.70;99.80
23335;DHT22;11839;48.598;8.870;2023-02-08T06:32:02;-3.90;99.90
23335;DHT22;11839;48.598;8.870;2023-02-08T06:34:29;-3.80;99.90
23335;DHT22;11839;48.598;8.870;2023-02-08T06:36:56;-3.90;99.90
23335;DHT22;11839;48.598;8.870;2023-02-08T06:39:25;-4.20;99.90
23335;DHT22;11839;48.598;8.870;2023-02-08T06:41:52;-4.20;99.90
23335;DHT22;11839;48.598;8.870;2023-02-08T06:44:19;-4.30;99.90
23335;DHT22;11839;48.598;8.870;2023-02-08T06:46:46;-4.20;99.90
23335;DHT22;11839;48.598;8.870;2023-02-08T06:49:12;-4.00;99.90
23335;DHT22;11839;48.598;8.870;2023-02-08T06:51:40;-3.70;99.90
23335;DHT22;11839;48.598;8.870;2023-02-08T06:54:07;-3.70;99.90
23335;DHT22;11839;48.598;8.870;2023-02-08T06:56:35;-3.60;99.80
23335;DHT22;11839;48.598;8.870;2023-02-08T06:59:02;-3.80;99.90
23335;DHT22;11839;48.598;8.870;2023-02-08T07:01:29;-3.80;99.90
23335;DHT22;11839;48.598;8.870;2023-02-08T07:03:56;-3.80;99.90
23335;DHT22;11839;48.598;8.870;2023-02-08T07:06:22;-3.80;99.90
23335;DHT22;11839;48.598;8.870;2023-02-08T07:08:49;-3.70;99.90
23335;DHT22;11839;48.598;8.870;2023-02-08T07:11:18;-3.70;99.80
23335;DHT22;11839;48.598;8.870;2023-02-08T07:13:47;-3.70;99.70
23335;DHT22;11839;48.598;8.870;2023-02-08T07:16:15;-3.70;99.40
23335;DHT22;11839;48.598;8.870;2023-02-08T07:18:42;-3.60;99.50
23335;DHT22;11839;48.598;8.870;2023-02-08T07:21:10;-3.60;99.40
23335;DHT22;11839;48.598;8.870;2023-02-08T07:23:37;-3.50;99.20
23335;DHT22;11839;48.598;8.870;2023-02-08T07:26:06;-3.50;99.20
23335;DHT22;11839;48.598;8.870;2023-02-08T07:28:34;-3.50;98.90
23335;DHT22;11839;48.598;8.870;2023-02-08T07:31:05;-3.40;98.90
23335;DHT22;11839;48.598;8.870;2023-02-08T07:33:32;-3.20;98.70
23335;DHT22;11839;48.598;8.870;2023-02-08T07:35:59;-3.00;98.50
23335;DHT22;11839;48.598;8.870;2023-02-08T07:38:25;-2.90;98.50
23335;DHT22;11839;48.598;8.870;2023-02-08T07:40:59;-2.70;98.20
23335;DHT22;11839;48.598;8.870;2023-02-08T07:43:26;-2.80;97.90
23335;DHT22;11839;48.598;8.870;2023-02-08T07:45:53;-2.70;97.90
23335;DHT22;11839;48.598;8.870;2023-02-08T07:48:21;-2.60;97.80
23335;DHT22;11839;48.598;8.870;2023-02-08T07:50:49;-2.60;97.80
23335;DHT22;11839;48.598;8.870;2023-02-08T07:53:16;-2.60;97.80
23335;DHT22;11839;48.598;8.870;2023-02-08T07:55:44;-2.50;97.80
23335;DHT22;11839;48.598;8.870;2023-02-08T07:58:11;-2.70;97.90
23335;DHT22;11839;48.598;8.870;2023-02-08T08:00:38;-2.30;97.90
23335;DHT22;11839;48.598;8.870;2023-02-08T08:03:05;-2.50;97.20
23335;DHT22;11839;48.598;8.870;2023-02-08T08:05:34;-2.40;97.80
23335;DHT22;11839;48.598;8.870;2023-02-08T08:08:00;-2.30;97.50
23335;DHT22;11839;48.598;8.870;2023-02-08T08:10:27;-1.90;97.30
23335;DHT22;11839;48.598;8.870;2023-02-08T08:12:54;-1.80;96.60
23335;DHT22;11839;48.598;8.870;2023-02-08T08:15:21;-1.90;97.30
23335;DHT22;11839;48.598;8.870;2023-02-08T08:17:48;-1.80;97.20
23335;DHT22;11839;48.598;8.870;2023-02-08T08:20:15;-1.40;96.70
23335;DHT22;11839;48.598;8.870;2023-02-08T08:22:43;-1.60;96.70
23335;DHT22;11839;48.598;8.870;2023-02-08T08:25:10;-1.30;96.70
23335;DHT22;11839;48.598;8.870;2023-02-08T08:27:37;-1.30;96.70
23335;DHT22;11839;48.598;8.870;2023-02-08T08:30:05;-1.00;96.20
23335;DHT22;11839;48.598;8.870;2023-02-08T08:32:32;-1.00;95.90
23335;DHT22;11839;48.598;8.870;2023-02-08T08:34:59;-0.70;95.60
23335;DHT22;11839;48.598;8.870;2023-02-08T08:37:26;-0.70;95.60
23335;DHT22;11839;48.598;8.870;2023-02-08T08:39:54;-0.70;95.40
23335;DHT22;11839;48.598;8.870;2023-02-08T08:42:20;-0.80;95.30
23335;DHT22;11839;48.598;8.870;2023-02-08T08:44:47;-0.70;95.20
23335;DHT22;11839;48.598;8.870;2023-02-08T08:47:14;-0.80;95.10
23335;DHT22;11839;48.598;8.870;2023-02-08T08:49:41;-0.90;95.00
23335;DHT22;11839;48.598;8.870;2023-02-08T08:52:09;-0.40;95.30
23335;DHT22;11839;48.598;8.870;2023-02-08T08:54:36;-0.10;94.50
23335;DHT22;11839;48.598;8.870;2023-02-08T08:57:04;-0.10;94.30
23335;DHT22;11839;48.598;8.870;2023-02-08T08:59:32;-0.40;94.10
23335;DHT22;11839;48.598;8.870;2023-02-08T09:01:59;-0.80;94.50
23335;DHT22;11839;48.598;8.870;2023-02-08T09:04:25;-0.70;94.70
23335;DHT22;11839;48.598;8.870;2023-02-08T09:06:53;-0.40;94.90
23335;DHT22;11839;48.598;8.870;2023-02-08T09:09:20;-0.20;94.30
23335;DHT22;11839;48.598;8.870;2023-02-08T09:11:47;-0.10;94.10
23335;DHT22;11839;48.598;8.870;2023-02-08T09:14:16;0.20;93.90
23335;DHT22;11839;48.598;8.870;2023-02-08T09:16:43;0.60;93.50
23335;DHT22;11839;48.598;8.870;2023-02-08T09:19:13;0.70;93.40
23335;DHT22;11839;48.598;8.870;2023-02-08T09:21:40;1.10;92.80
23335;DHT22;11839;48.598;8.870;2023-02-08T09:24:07;1.20;92.20
23335;DHT22;11839;48.598;8.870;2023-02-08T09:26:34;1.40;91.80
23335;DHT22;11839;48.598;8.870;2023-02-08T09:29:01;1.30;91.30
23335;DHT22;11839;48.598;8.870;2023-02-08T09:31:31;1.10;91.30
23335;DHT22;11839;48.598;8.870;2023-02-08T09:34:00;0.70;91.70
23335;DHT22;11839;48.598;8.870;2023-02-08T09:36:29;1.10;93.50
23335;DHT22;11839;48.598;8.870;2023-02-08T09:39:00;1.50;91.50
23335;DHT22;11839;48.598;8.870;2023-02-08T09:41:50;1.70;90.40
23335;DHT22;11839;48.598;8.870;2023-02-08T09:44:24;1.50;90.60
23335;DHT22;11839;48.598;8.870;2023-02-08T09:46:57;1.80;91.10
23335;DHT22;11839;48.598;8.870;2023-02-08T09:49:29;1.90;89.20
23335;DHT22;11839;48.598;8.870;2023-02-08T09:51:59;1.60;88.90
23335;DHT22;11839;48.598;8.870;2023-02-08T09:54:32;1.90;89.70
23335;DHT22;11839;48.598;8.870;2023-02-08T09:57:00;2.30;88.60
23335;DHT22;11839;48.598;8.870;2023-02-08T09:59:30;2.30;86.50
23335;DHT22;11839;48.598;8.870;2023-02-08T10:02:03;2.10;86.90
23335;DHT22;11839;48.598;8.870;2023-02-08T10:04:43;1.80;86.90
23335;DHT22;11839;48.598;8.870;2023-02-08T10:07:15;1.90;85.20
23335;DHT22;11839;48.598;8.870;2023-02-08T10:09:42;1.80;85.80
23335;DHT22;11839;48.598;8.870;2023-02-08T10:12:16;1.60;85.20
23335;DHT22;11839;48.598;8.870;2023-02-08T10:14:54;1.70;86.00
23335;DHT22;11839;48.598;8.870;2023-02-08T10:17:44;2.10;87.50
23335;DHT22;11839;48.598;8.870;2023-02-08T10:20:30;2.40;83.60
23335;DHT22;11839;48.598;8.870;2023-02-08T10:23:05;2.10;84.50
23335;DHT22;11839;48.598;8.870;2023-02-08T10:25:50;2.20;85.60
23335;DHT22;11839;48.598;8.870;2023-02-08T10:28:39;2.40;85.10
23335;DHT22;11839;48.598;8.870;2023-02-08T10:31:14;2.40;83.40
23335;DHT22;11839;48.598;8.870;2023-02-08T10:33:49;2.60;84.40
23335;DHT22;11839;48.598;8.870;2023-02-08T10:36:20;3.10;86.10
23335;DHT22;11839;48.598;8.870;2023-02-08T10:38:49;3.50;85.40
23335;DHT22;11839;48.598;8.870;2023-02-08T10:41:20;3.90;83.00
23335;DHT22;11839;48.598;8.870;2023-02-08T10:43:50;4.10;81.60
23335;DHT22;11839;48.598;8.870;2023-02-08T10:46:24;3.90;80.40
23335;DHT22;11839;48.598;8.870;2023-02-08T10:49:03;4.00;80.00
23335;DHT22;11839;48.598;8.870;2023-02-08T10:51:33;3.90;77.60
23335;DHT22;11839;48.598;8.870;2023-02-08T10:54:00;4.00;78.50
23335;DHT22;11839;48.598;8.870;2023-02-08T10:56:49;3.50;76.60
23335;DHT22;11839;48.598;8.870;2023-02-08T10:59:21;3.40;78.90
23335;DHT22;11839;48.598;8.870;2023-02-08T11:01:49;3.30;78.20
23335;DHT22;11839;48.598;8.870;2023-02-08T11:04:18;3.70;78.80
23335;DHT22;11839;48.598;8.870;2023-02-08T11:06:47;3.70;77.90
23335;DHT22;11839;48.598;8.870;2023-02-08T11:09:22;3.40;76.40
23335;DHT22;11839;48.598;8.870;2023-02-08T11:11:50;3.60;77.40
23335;DHT22;11839;48.598;8.870;2023-02-08T11:14:21;3.40;76.50
23335;DHT22;11839;48.598;8.870;2023-02-08T11:16:50;3.50;78.90
23335;DHT22;11839;48.598;8.870;2023-02-08T11:19:27;3.70;77.40
23335;DHT22;11839;48.598;8.870;2023-02-08T11:21:54;3.80;79.80
23335;DHT22;11839;48.598;8.870;2023-02-08T11:24:26;3.80;77.50
23335;DHT22;11839;48.598;8.870;2023-02-08T11:26:55;3.60;76.90
23335;DHT22;11839;48.598;8.870;2023-02-08T11:29:24;3.90;77.10
23335;DHT22;11839;48.598;8.870;2023-02-08T11:31:58;4.40;76.50
23335;DHT22;11839;48.598;8.870;2023-02-08T11:34:28;4.60;75.90
23335;DHT22;11839;48.598;8.870;2023-02-08T11:36:56;4.10;76.70
23335;DHT22;11839;48.598;8.870;2023-02-08T11:39:25;3.80;78.30
23335;DHT22;11839;48.598;8.870;2023-02-08T11:41:55;4.20;78.50
23335;DHT22;11839;48.598;8.870;2023-02-08T11:44:26;4.50;76.90
23335;DHT22;11839;48.598;8.870;2023-02-08T11:46:56;4.20;78.10
23335;DHT22;11839;48.598;8.870;2023-02-08T11:49:31;4.70;78.60
23335;DHT22;11839;48.598;8.870;2023-02-08T11:52:01;4.60;77.90
23335;DHT22;11839;48.598;8.870;2023-02-08T11:54:36;4.30;78.60
23335;DHT22;11839;48.598;8.870;2023-02-08T11:57:11;4.40;77.90
23335;DHT22;11839;48.598;8.870;2023-02-08T11:59:39;4.60;77.50
23335;DHT22;11839;48.598;8.870;2023-02-08T12:02:31;4.20;76.90
23335;DHT22;11839;48.598;8.870;2023-02-08T12:05:02;4.00;77.60
23335;DHT22;11839;48.598;8.870;2023-02-08T12:07:41;4.20;78.40
23335;DHT22;11839;48.598;8.870;2023-02-08T12:10:28;4.30;78.10
23335;DHT22;11839;48.598;8.870;2023-02-08T12:13:16;4.70;78.50
23335;DHT22;11839;48.598;8.870;2023-02-08T12:15:51;5.20;78.90
23335;DHT22;11839;48.598;8.870;2023-02-08T12:18:43;4.90;78.70
23335;DHT22;11839;48.598;8.870;2023-02-08T12:21:18;4.60;78.90
23335;DHT22;11839;48.598;8.870;2023-02-08T12:23:50;4.70;79.60
23335;DHT22;11839;48.598;8.870;2023-02-08T12:26:24;4.70;78.70
23335;DHT22;11839;48.598;8.870;2023-02-08T12:29:07;4.50;78.40
23335;DHT22;11839;48.598;8.870;2023-02-08T12:31:50;5.10;78.20
23335;DHT22;11839;48.598;8.870;2023-02-08T12:34:24;5.20;78.50
23335;DHT22;11839;48.598;8.870;2023-02-08T12:37:17;4.80;78.30
23335;DHT22;11839;48.598;8.870;2023-02-08T12:40:17;5.20;79.00
23335;DHT22;11839;48.598;8.870;2023-02-08T12:43:10;5.40;77.70
23335;DHT22;11839;48.598;8.870;2023-02-08T12:45:58;5.10;78.20
23335;DHT22;11839;48.598;8.870;2023-02-08T12:48:47;5.20;78.60
23335;DHT22;11839;48.598;8.870;2023-02-08T12:51:25;5.40;78.50
23335;DHT22;11839;48.598;8.870;2023-02-08T12:54:01;5.20;77.10
23335;DHT22;11839;48.598;8.870;2023-02-08T12:56:32;4.80;77.40
23335;DHT22;11839;48.598;8.870;2023-02-08T12:59:01;4.90;77.70
23335;DHT22;11839;48.598;8.870;2023-02-08T13:01:32;5.40;78.00
23335;DHT22;11839;48.598;8.870;2023-02-08T13:04:04;5.00;77.10
23335;DHT22;11839;48.598;8.870;2023-02-08T13:06:38;5.00;77.60
23335;DHT22;11839;48.598;8.870;2023-02-08T13:09:13;5.10;77.00
23335;DHT22;11839;48.598;8.870;2023-02-08T13:11:47;4.80;78.00
23335;DHT22;11839;48.598;8.870;2023-02-08T13:14:25;4.90;79.10
23335;DHT22;11839;48.598;8.870;2023-02-08T13:16:57;4.70;79.40
23335;DHT22;11839;48.598;8.870;2023-02-08T13:19:28;4.80;79.00
23335;DHT22;11839;48.598;8.870;2023-02-08T13:21:57;4.70;78.20
23335;DHT22;11839;48.598;8.870;2023-02-08T13:24:32;4.70;79.30
23335;DHT22;11839;48.598;8.870;2023-02-08T13:26:59;5.00;79.00
23335;DHT22;11839;48.598;8.870;2023-02-08T13:29:27;5.30;79.20
23335;DHT22;11839;48.598;8.870;2023-02-08T13:31:57;4.90;77.50
23335;DHT22;11839;48.598;8.870;2023-02-08T13:34:30;4.90;78.50
23335;DHT22;11839;48.598;8.870;2023-02-08T13:37:00;5.30;78.80
23335;DHT22;11839;48.598;8.870;2023-02-08T13:39:44;5.20;76.80
23335;DHT22;11839;48.598;8.870;2023-02-08T13:42:20;4.80;77.60
23335;DHT22;11839;48.598;8.870;2023-02-08T13:44:49;4.90;77.90
23335;DHT22;11839;48.598;8.870;2023-02-08T13:47:25;5.10;77.70
23335;DHT22;11839;48.598;8.870;2023-02-08T13:49:57;5.30;76.70
23335;DHT22;11839;48.598;8.870;2023-02-08T13:52:50;5.20;74.50
23335;DHT22;11839;48.598;8.870;2023-02-08T13:55:51;5.00;75.40
23335;DHT22;11839;48.598;8.870;2023-02-08T14:01:19;4.90;76.80
23335;DHT22;11839;48.598;8.870;2023-02-08T14:06:47;5.00;76.80
23335;DHT22;11839;48.598;8.870;2023-02-08T14:09:20;4.80;76.30
23335;DHT22;11839;48.598;8.870;2023-02-08T14:11:54;4.60;75.00
23335;DHT22;11839;48.598;8.870;2023-02-08T14:14:23;4.50;76.00
23335;DHT22;11839;48.598;8.870;2023-02-08T14:19:56;4.80;78.30
23335;DHT22;11839;48.598;8.870;2023-02-08T14:22:25;5.00;75.50
23335;DHT22;11839;48.598;8.870;2023-02-08T14:25:01;5.00;75.20
23335;DHT22;11839;48.598;8.870;2023-02-08T14:27:38;4.80;74.60
23335;DHT22;11839;48.598;8.870;2023-02-08T14:30:08;4.60;75.00
23335;DHT22;11839;48.598;8.870;2023-02-08T14:32:47;4.80;75.50
23335;DHT22;11839;48.598;8.870;2023-02-08T14:35:19;5.10;75.50
23335;DHT22;11839;48.598;8.870;2023-02-08T14:37:47;5.20;74.30
23335;DHT22;11839;48.598;8.870;2023-02-08T14:43:33;5.40;74.00
23335;DHT22;11839;48.598;8.870;2023-02-08T14:49:09;5.20;74.30
23335;DHT22;11839;48.598;8.870;2023-02-08T14:51:39;5.50;72.50
23335;DHT22;11839;48.598;8.870;2023-02-08T14:54:16;5.30;71.20
23335;DHT22;11839;48.598;8.870;2023-02-08T14:56:53;5.30;71.40
23335;DHT22;11839;48.598;8.870;2023-02-08T14:59:25;5.20;71.10
23335;DHT22;11839;48.598;8.870;2023-02-08T15:01:56;5.20;71.80
23335;DHT22;11839;48.598;8.870;2023-02-08T15:04:23;5.10;70.20
23335;DHT22;11839;48.598;8.870;2023-02-08T15:07:12;5.20;71.40
23335;DHT22;11839;48.598;8.870;2023-02-08T15:09:43;5.00;71.00
23335;DHT22;11839;48.598;8.870;2023-02-08T15:12:15;5.10;71.70
23335;DHT22;11839;48.598;8.870;2023-02-08T15:14:44;5.20;71.40
23335;DHT22;11839;48.598;8.870;2023-02-08T15:17:20;4.90;73.60
23335;DHT22;11839;48.598;8.870;2023-02-08T15:19:50;5.00;73.40
23335;DHT22;11839;48.598;8.870;2023-02-08T15:22:28;4.90;74.90
23335;DHT22;11839;48.598;8.870;2023-02-08T15:24:58;5.20;75.60
23335;DHT22;11839;48.598;8.870;2023-02-08T15:27:28;5.20;75.20
23335;DHT22;11839;48.598;8.870;2023-02-08T15:29:57;5.30;75.30
23335;DHT22;11839;48.598;8.870;2023-02-08T15:32:25;5.30;75.70
23335;DHT22;11839;48.598;8.870;2023-02-08T15:34:55;4.80;75.90
23335;DHT22;11839;48.598;8.870;2023-02-08T15:37:22;4.60;78.20
23335;DHT22;11839;48.598;8.870;2023-02-08T15:39:51;4.50;77.70
23335;DHT22;11839;48.598;8.870;2023-02-08T15:42:21;4.80;78.30
23335;DHT22;11839;48.598;8.870;2023-02-08T15:44:49;4.60;77.60
23335;DHT22;11839;48.598;8.870;2023-02-08T15:47:21;4.70;78.70
23335;DHT22;11839;48.598;8.870;2023-02-08T15:49:49;4.70;77.30
23335;DHT22;11839;48.598;8.870;2023-02-08T15:52:21;4.60;77.70
23335;DHT22;11839;48.598;8.870;2023-02-08T15:54:49;4.40;77.00
23335;DHT22;11839;48.598;8.870;2023-02-08T15:57:25;4.30;78.10
23335;DHT22;11839;48.598;8.870;2023-02-08T15:59:55;4.70;78.10
23335;DHT22;11839;48.598;8.870;2023-02-08T16:02:27;4.70;77.10
23335;DHT22;11839;48.598;8.870;2023-02-08T16:04:56;4.60;78.10
23335;DHT22;11839;48.598;8.870;2023-02-08T16:07:27;4.90;77.50
23335;DHT22;11839;48.598;8.870;2023-02-08T16:09:55;4.70;76.40
23335;DHT22;11839;48.598;8.870;2023-02-08T16:12:24;4.70;77.30
23335;DHT22;11839;48.598;8.870;2023-02-08T16:14:52;4.50;77.20
23335;DHT22;11839;48.598;8.870;2023-02-08T16:17:43;4.40;78.40
23335;DHT22;11839;48.598;8.870;2023-02-08T16:20:22;4.50;77.50
23335;DHT22;11839;48.598;8.870;2023-02-08T16:22:56;4.70;77.30